createdAt,value
2018-07-13T00:00:32.540Z,99618.90
2018-07-13T00:03:01.951Z,99616.73
2018-07-13T00:05:31.315Z,99622.22
2018-07-13T00:08:00.766Z,99630.70
2018-07-13T00:10:30.074Z,99629.52
2018-07-13T00:12:59.514Z,99621.64
2018-07-13T00:15:29.048Z,99623.88
2018-07-13T00:17:58.470Z,99617.14
2018-07-13T00:20:27.898Z,99616.33
2018-07-13T00:22:57.209Z,99622.13
2018-07-13T00:25:26.688Z,99622.61
2018-07-13T00:27:55.946Z,99622.13
2018-07-13T00:30:25.493Z,99625.45
2018-07-13T00:32:54.861Z,99627.92
2018-07-13T00:35:24.354Z,99628.71
2018-07-13T00:37:54.015Z,99631.56
2018-07-13T00:40:23.534Z,99629.28
2018-07-13T00:42:52.925Z,99628.52
2018-07-13T00:45:22.207Z,99623.61
2018-07-13T00:47:51.659Z,99625.22
2018-07-13T00:50:21.390Z,99636.59
2018-07-13T00:52:50.901Z,99640.50
2018-07-13T00:55:21.369Z,99645.04
2018-07-13T00:57:50.932Z,99658.70
2018-07-13T01:00:31.589Z,99654.52
2018-07-13T01:03:02.654Z,99658.73
2018-07-13T01:05:32.614Z,99657.12
2018-07-13T01:08:01.897Z,99672.24
2018-07-13T01:10:31.338Z,99681.53
2018-07-13T01:13:00.886Z,99683.94
2018-07-13T01:15:30.187Z,99680.68
2018-07-13T01:17:59.454Z,99671.22
2018-07-13T01:20:28.887Z,99672.72
2018-07-13T01:22:58.281Z,99677.46
2018-07-13T01:25:27.860Z,99673.09
2018-07-13T01:27:57.251Z,99674.42
2018-07-13T01:30:26.559Z,99666.08
2018-07-13T01:32:55.991Z,99665.31
2018-07-13T01:35:25.522Z,99672.41
2018-07-13T01:37:55.668Z,99672.88
2018-07-13T01:40:25.179Z,99672.63
2018-07-13T01:42:54.613Z,99671.13
2018-07-13T01:45:25.244Z,99670.37
2018-07-13T01:47:54.725Z,99677.69
2018-07-13T01:50:24.340Z,99676.36
2018-07-13T01:52:54.085Z,99674.98
2018-07-13T01:55:23.399Z,99667.54
2018-07-13T01:57:52.876Z,99671.05
2018-07-13T02:00:22.269Z,99660.91
2018-07-13T02:02:51.732Z,99662.88
2018-07-13T02:05:21.210Z,99658.13
2018-07-13T02:07:50.665Z,99667.41
2018-07-13T02:10:20.094Z,99669.08
2018-07-13T02:12:49.625Z,99669.63
2018-07-13T02:15:19.237Z,99671.33
2018-07-13T02:17:48.902Z,99669.02
2018-07-13T02:20:18.448Z,99674.66
2018-07-13T02:22:47.898Z,99670.19
2018-07-13T02:25:17.319Z,99683.78
2018-07-13T02:27:46.772Z,99693.14
2018-07-13T02:30:16.252Z,99693.89
2018-07-13T02:32:45.733Z,99695.55
2018-07-13T02:35:15.137Z,99700.23
2018-07-13T02:37:44.576Z,99709.31
2018-07-13T02:40:14.117Z,99707.60
2018-07-13T02:42:43.657Z,99710.58
2018-07-13T02:45:13.269Z,99712.69
2018-07-13T02:47:42.742Z,99713.35
2018-07-13T02:50:12.170Z,99715.69
2018-07-13T02:52:41.570Z,99717.09
2018-07-13T02:55:11.033Z,99716.86
2018-07-13T02:57:40.461Z,99717.80
2018-07-13T03:00:09.876Z,99725.05
2018-07-13T03:02:39.305Z,99728.35
2018-07-13T03:05:09.141Z,99735.68
2018-07-13T03:07:38.654Z,99740.89
2018-07-13T03:10:08.135Z,99741.83
2018-07-13T03:12:37.719Z,99747.83
2018-07-13T03:15:07.388Z,99748.22
2018-07-13T03:17:37.005Z,99751.61
2018-07-13T03:20:06.574Z,99748.66
2018-07-13T03:22:36.201Z,99739.19
2018-07-13T03:25:05.822Z,99750.17
2018-07-13T03:27:35.141Z,99750.20
2018-07-13T03:30:04.605Z,99750.34
2018-07-13T03:32:34.023Z,99755.61
2018-07-13T03:35:03.756Z,99755.83
2018-07-13T03:37:33.079Z,99755.12
2018-07-13T03:40:02.778Z,99756.20
2018-07-13T03:42:32.247Z,99759.34
2018-07-13T03:45:01.676Z,99765.95
2018-07-13T03:47:31.318Z,99765.13
2018-07-13T03:50:00.793Z,99758.63
2018-07-13T03:52:30.408Z,99759.70
2018-07-13T03:54:59.933Z,99752.31
2018-07-13T03:57:29.421Z,99758.78
2018-07-13T03:59:58.912Z,99756.21
2018-07-13T04:02:28.359Z,99756.05
2018-07-13T04:04:57.735Z,99753.86
2018-07-13T04:07:27.367Z,99756.81
2018-07-13T04:09:57.264Z,99758.14
2018-07-13T04:12:26.857Z,99749.97
2018-07-13T04:14:56.288Z,99760.98
2018-07-13T04:17:26.329Z,99764.95
2018-07-13T04:19:55.727Z,99764.19
2018-07-13T04:22:25.419Z,99775.88
2018-07-13T04:24:55.176Z,99773.47
2018-07-13T04:27:25.224Z,99786.66
2018-07-13T04:29:56.342Z,99790.94
2018-07-13T04:32:25.822Z,99800.23
2018-07-13T04:34:55.437Z,99807.79
2018-07-13T04:37:25.917Z,99800.22
2018-07-13T04:39:55.352Z,99818.09
2018-07-13T04:42:24.748Z,99816.94
2018-07-13T04:44:54.189Z,99828.46
2018-07-13T04:47:24.540Z,99834.48
2018-07-13T04:49:54.239Z,99828.52
2018-07-13T04:52:23.898Z,99836.67
2018-07-13T04:54:53.501Z,99833.85
2018-07-13T04:57:23.080Z,99836.29
2018-07-13T04:59:52.833Z,99837.61
2018-07-13T05:02:22.334Z,99842.17
2018-07-13T05:04:52.007Z,99843.38
2018-07-13T05:07:22.736Z,99843.38
2018-07-13T05:09:52.254Z,99847.36
2018-07-13T05:12:22.107Z,99841.59
2018-07-13T05:14:51.979Z,99835.64
2018-07-13T05:17:21.672Z,99835.26
2018-07-13T05:19:51.221Z,99829.48
2018-07-13T05:22:20.909Z,99832.06
2018-07-13T05:24:51.516Z,99824.94
2018-07-13T05:27:20.935Z,99823.46
2018-07-13T05:29:50.703Z,99829.38
2018-07-13T05:32:20.457Z,99826.95
2018-07-13T05:34:50.165Z,99822.41
2018-07-13T05:37:19.808Z,99830.20
2018-07-13T05:39:50.547Z,99832.09
2018-07-13T05:42:20.064Z,99838.21
2018-07-13T05:44:49.877Z,99832.90
2018-07-13T05:47:19.589Z,99835.77
2018-07-13T05:49:49.218Z,99843.01
2018-07-13T05:52:18.760Z,99845.61
2018-07-13T05:54:48.532Z,99844.56
2018-07-13T05:57:18.032Z,99852.57
2018-07-13T05:59:47.744Z,99859.42
2018-07-13T06:02:17.217Z,99861.54
2018-07-13T06:05:18.320Z,99864.02
2018-07-13T06:07:47.821Z,99871.92
2018-07-13T06:10:17.536Z,99865.08
2018-07-13T06:12:47.246Z,99856.63
2018-07-13T06:15:16.742Z,99862.77
2018-07-13T06:17:46.552Z,99851.27
2018-07-13T06:20:16.207Z,99851.14
2018-07-13T06:22:45.756Z,99855.22
2018-07-13T06:25:15.177Z,99850.05
2018-07-13T06:27:44.615Z,99850.77
2018-07-13T06:30:14.319Z,99848.53
2018-07-13T06:32:43.649Z,99843.22
2018-07-13T06:35:13.327Z,99848.80
2018-07-13T06:37:42.941Z,99834.92
2018-07-13T06:40:12.642Z,99842.84
2018-07-13T06:42:42.133Z,99833.50
2018-07-13T06:45:12.047Z,99833.63
2018-07-13T06:47:41.602Z,99834.46
2018-07-13T06:50:11.112Z,99834.78
2018-07-13T06:52:40.791Z,99828.73
2018-07-13T06:55:10.919Z,99835.99
2018-07-13T06:57:51.175Z,99832.75
2018-07-13T07:01:10.833Z,99834.08
2018-07-13T07:04:49.912Z,99827.50
2018-07-13T07:07:25.453Z,99826.55
2018-07-13T07:09:58.153Z,99830.33
2018-07-13T07:13:06.481Z,99831.82
2018-07-13T07:15:36.211Z,99835.30
2018-07-13T07:18:05.820Z,99830.03
2018-07-13T07:20:35.283Z,99837.50
2018-07-13T07:23:04.806Z,99834.95
2018-07-13T07:25:34.560Z,99832.77
2018-07-13T07:28:04.093Z,99829.73
2018-07-13T07:30:34.056Z,99826.56
2018-07-13T07:33:04.291Z,99832.44
2018-07-13T07:35:35.252Z,99830.27
2018-07-13T07:38:05.165Z,99826.73
2018-07-13T07:40:35.170Z,99825.77
2018-07-13T07:43:05.410Z,99832.83
2018-07-13T07:45:35.161Z,99828.69
2018-07-13T07:48:04.988Z,99825.51
2018-07-13T07:50:37.506Z,99825.48
2018-07-13T07:53:07.072Z,99821.34
2018-07-13T07:55:37.214Z,99822.45
2018-07-13T07:58:07.433Z,99825.22
2018-07-13T08:00:37.392Z,99820.83
2018-07-13T08:03:07.452Z,99826.68
2018-07-13T08:05:37.563Z,99814.97
2018-07-13T08:08:07.473Z,99762.50
2018-07-13T08:10:38.372Z,99787.04
2018-07-13T08:13:12.135Z,99790.85
2018-07-13T08:15:42.973Z,99788.45
2018-07-13T08:18:12.662Z,99799.70
2018-07-13T08:20:47.621Z,99796.50
2018-07-13T08:23:17.922Z,99795.06
2018-07-13T08:25:50.591Z,99792.21
2018-07-13T08:28:20.441Z,99784.52
2018-07-13T08:30:54.660Z,99790.93
2018-07-13T08:33:24.315Z,99800.39
2018-07-13T08:35:54.184Z,99798.63
2018-07-13T08:38:23.911Z,99797.97
2018-07-13T08:40:53.780Z,99805.14
2018-07-13T08:43:23.480Z,99806.77
2018-07-13T08:45:53.334Z,99814.11
2018-07-13T08:48:22.950Z,99808.63
2018-07-13T08:50:52.913Z,99804.80
2018-07-13T08:53:23.064Z,99808.86
2018-07-13T08:55:54.110Z,99810.69
2018-07-13T08:58:24.321Z,99816.59
2018-07-13T09:00:54.391Z,99807.77
2018-07-13T09:03:24.431Z,99811.73
2018-07-13T09:05:54.209Z,99810.08
2018-07-13T09:08:24.082Z,99811.27
2018-07-13T09:10:53.839Z,99805.93
2018-07-13T09:13:23.682Z,99802.77
2018-07-13T09:15:53.591Z,99810.07
2018-07-13T09:18:23.416Z,99810.98
2018-07-13T09:20:53.040Z,99812.75
2018-07-13T09:23:23.134Z,99807.17
2018-07-13T09:25:53.022Z,99804.10
2018-07-13T09:28:22.851Z,99808.26
2018-07-13T09:30:52.751Z,99812.36
2018-07-13T09:33:22.631Z,99807.95
2018-07-13T09:35:52.553Z,99816.56
2018-07-13T09:38:22.945Z,99820.11
2018-07-13T09:40:53.350Z,99812.34
2018-07-13T09:43:23.212Z,99813.67
2018-07-13T09:45:54.023Z,99813.41
2018-07-13T09:48:23.772Z,99826.55
2018-07-13T09:50:53.471Z,99818.06
2018-07-13T09:53:23.491Z,99812.42
2018-07-13T09:55:53.031Z,99814.76
2018-07-13T09:58:31.802Z,99817.34
2018-07-13T10:01:06.691Z,99831.16
2018-07-13T10:03:39.177Z,99817.56
2018-07-13T10:06:09.186Z,99805.80
2018-07-13T10:08:39.032Z,99814.61
2018-07-13T10:11:08.660Z,99817.22
2018-07-13T10:13:38.371Z,99816.16
2018-07-13T10:16:08.219Z,99822.80
2018-07-13T10:18:38.069Z,99824.09
2018-07-13T10:21:08.815Z,99823.16
2018-07-13T10:23:39.511Z,99813.19
2018-07-13T10:26:13.790Z,99821.45
2018-07-13T10:28:43.731Z,99816.23
2018-07-13T10:31:14.771Z,99819.64
2018-07-13T10:33:44.859Z,99811.23
2018-07-13T10:36:18.461Z,99800.91
2018-07-13T10:38:48.295Z,99806.68
2018-07-13T10:41:18.052Z,99804.44
2018-07-13T10:43:47.892Z,99811.08
2018-07-13T10:46:17.363Z,99807.31
2018-07-13T10:48:46.903Z,99805.92
2018-07-13T10:51:16.549Z,99803.18
2018-07-13T10:53:46.456Z,99808.13
2018-07-13T10:56:16.152Z,99802.91
2018-07-13T10:58:46.057Z,99803.20
2018-07-13T11:01:16.003Z,99796.79
2018-07-13T11:03:45.984Z,99796.69
2018-07-13T11:06:15.872Z,99793.42
2018-07-13T11:08:45.714Z,99784.63
2018-07-13T11:11:15.484Z,99779.55
2018-07-13T11:13:45.376Z,99774.95
2018-07-13T11:16:15.248Z,99780.94
2018-07-13T11:18:45.933Z,99788.39
2018-07-13T11:21:15.784Z,99783.62
2018-07-13T11:23:45.590Z,99792.48
2018-07-13T11:26:15.623Z,99791.34
2018-07-13T11:28:45.493Z,99786.59
2018-07-13T11:31:15.534Z,99786.09
2018-07-13T11:33:45.323Z,99773.33
2018-07-13T11:36:15.251Z,99776.66
2018-07-13T11:38:45.189Z,99774.74
2018-07-13T11:41:14.960Z,99787.89
2018-07-13T11:43:44.736Z,99788.20
2018-07-13T11:46:14.621Z,99779.51
2018-07-13T11:48:44.153Z,99788.70
2018-07-13T11:51:14.255Z,99773.91
2018-07-13T11:53:44.059Z,99778.22
2018-07-13T11:56:14.043Z,99780.89
2018-07-13T11:58:43.932Z,99776.78
2018-07-13T12:01:13.752Z,99780.41
2018-07-13T12:03:43.612Z,99781.23
2018-07-13T12:06:13.622Z,99770.11
2018-07-13T12:08:43.235Z,99777.05
2018-07-13T12:11:12.983Z,99774.53
2018-07-13T12:13:43.543Z,99776.80
2018-07-13T12:16:13.142Z,99781.17
2018-07-13T12:18:42.953Z,99779.11
2018-07-13T12:21:12.923Z,99777.42
2018-07-13T12:23:42.714Z,99774.20
2018-07-13T12:26:12.872Z,99770.30
2018-07-13T12:28:42.573Z,99777.97
2018-07-13T12:31:12.452Z,99785.54
2018-07-13T12:33:42.113Z,99781.83
2018-07-13T12:36:13.101Z,99777.09
2018-07-13T12:38:43.051Z,99777.55
2018-07-13T12:41:12.742Z,99776.39
2018-07-13T12:43:42.331Z,99772.58
2018-07-13T12:46:11.931Z,99772.94
2018-07-13T12:48:41.793Z,99769.12
2018-07-13T12:51:11.493Z,99767.09
2018-07-13T12:53:42.431Z,99763.63
2018-07-13T12:56:12.363Z,99755.11
2018-07-13T12:58:42.881Z,99771.77
2018-07-13T13:01:12.923Z,99775.46
2018-07-13T13:03:42.715Z,99743.81
2018-07-13T13:06:12.453Z,99744.83
2018-07-13T13:08:42.280Z,99725.13
2018-07-13T13:11:12.292Z,99724.61
2018-07-13T13:13:42.094Z,99724.95
2018-07-13T13:16:12.062Z,99715.86
2018-07-13T13:18:41.633Z,99701.08
2018-07-13T13:21:11.461Z,99712.27
2018-07-13T13:23:41.474Z,99709.95
2018-07-13T13:26:11.609Z,99746.91
2018-07-13T13:28:41.572Z,99760.69
2018-07-13T13:31:11.482Z,99777.59
2018-07-13T13:33:41.522Z,99776.65
2018-07-13T13:36:11.311Z,99771.30
2018-07-13T13:38:41.171Z,99766.05
2018-07-13T13:41:10.942Z,99761.56
2018-07-13T13:43:40.551Z,99764.97
2018-07-13T13:46:10.171Z,99742.20
2018-07-13T13:48:40.003Z,99744.13
2018-07-13T13:51:10.800Z,99745.95
2018-07-13T13:53:40.907Z,99749.77
2018-07-13T13:56:10.810Z,99751.39
2018-07-13T13:58:40.910Z,99741.58
2018-07-13T14:01:10.610Z,99738.69
2018-07-13T14:03:40.432Z,99744.80
2018-07-13T14:06:10.133Z,99741.39
2018-07-13T14:08:39.792Z,99742.05
2018-07-13T14:11:09.690Z,99737.47
2018-07-13T14:13:39.425Z,99735.11
2018-07-13T14:16:09.360Z,99736.85
2018-07-13T14:18:39.097Z,99732.39
2018-07-13T14:21:11.861Z,99723.25
2018-07-13T14:23:42.197Z,99717.54
2018-07-13T14:26:11.990Z,99710.75
2018-07-13T14:28:41.920Z,99711.29
2018-07-13T14:31:11.801Z,99710.14
2018-07-13T14:33:41.509Z,99712.41
2018-07-13T14:36:11.360Z,99710.41
2018-07-13T14:38:40.880Z,99696.41
2018-07-13T14:41:10.622Z,99698.23
2018-07-13T14:43:40.250Z,99689.57
2018-07-13T14:46:10.151Z,99706.86
2018-07-13T14:48:39.813Z,99747.59
2018-07-13T14:51:09.961Z,99855.81
2018-07-13T14:53:39.624Z,99816.45
2018-07-13T14:56:09.450Z,99853.58
2018-07-13T14:58:39.298Z,99837.16
2018-07-13T15:01:08.879Z,99810.08
2018-07-13T15:03:38.429Z,99791.73
2018-07-13T15:06:08.397Z,99782.56
2018-07-13T15:08:37.888Z,99782.64
2018-07-13T15:11:07.669Z,99770.70
2018-07-13T15:13:37.539Z,99767.12
2018-07-13T15:16:07.418Z,99758.58
2018-07-13T15:18:37.289Z,99764.14
2018-07-13T15:21:07.160Z,99772.92
2018-07-13T15:23:37.908Z,99769.59
2018-07-13T15:26:07.516Z,99755.55
2018-07-13T15:28:38.173Z,99749.81
2018-07-13T15:31:07.433Z,99754.91
2018-07-13T15:33:37.040Z,99760.39
2018-07-13T15:36:06.892Z,99760.69
2018-07-13T15:38:36.324Z,99758.55
2018-07-13T15:41:06.105Z,99763.06
2018-07-13T15:43:35.585Z,99772.78
2018-07-13T15:46:04.984Z,99779.67
2018-07-13T15:48:34.366Z,99781.99
2018-07-13T15:51:03.955Z,99778.14
2018-07-13T15:53:33.364Z,99773.56
2018-07-13T15:56:03.057Z,99763.89
2018-07-13T15:58:32.438Z,99772.80
2018-07-13T16:01:01.845Z,99760.88
2018-07-13T16:03:31.341Z,99756.23
2018-07-13T16:06:01.000Z,99751.59
2018-07-13T16:08:30.554Z,99748.81
2018-07-13T16:11:00.145Z,99748.98
2018-07-13T16:13:29.991Z,99744.13
2018-07-13T16:15:59.613Z,99746.84
2018-07-13T16:18:29.274Z,99743.95
2018-07-13T16:20:58.904Z,99750.86
2018-07-13T16:23:28.430Z,99757.73
2018-07-13T16:25:59.129Z,99765.10
2018-07-13T16:28:28.653Z,99763.20
2018-07-13T16:30:58.234Z,99742.52
2018-07-13T16:33:27.700Z,99758.22
2018-07-13T16:35:57.142Z,99749.54
2018-07-13T16:38:26.602Z,99753.75
2018-07-13T16:40:56.124Z,99747.20
2018-07-13T16:43:25.631Z,99741.86
2018-07-13T16:45:55.312Z,99737.03
2018-07-13T16:48:24.794Z,99736.95
2018-07-13T16:50:54.436Z,99742.25
2018-07-13T16:53:24.030Z,99731.31
2018-07-13T16:55:53.479Z,99747.16
2018-07-13T16:58:22.921Z,99748.17
2018-07-13T17:00:52.321Z,99752.27
2018-07-13T17:03:22.911Z,99754.58
2018-07-13T17:05:52.235Z,99766.16
2018-07-13T17:08:21.763Z,99764.45
2018-07-13T17:10:51.205Z,99778.11
2018-07-13T17:13:20.834Z,99782.30
2018-07-13T17:15:50.252Z,99770.95
2018-07-13T17:18:19.729Z,99774.16
2018-07-13T17:20:49.344Z,99764.55
2018-07-13T17:23:18.799Z,99771.66
2018-07-13T17:25:48.301Z,99777.99
2018-07-13T17:28:17.868Z,99788.61
2018-07-13T17:30:47.482Z,99798.02
2018-07-13T17:33:17.044Z,99792.19
2018-07-13T17:35:46.721Z,99788.03
2018-07-13T17:38:16.215Z,99773.55
2018-07-13T17:40:45.691Z,99767.82
2018-07-13T17:43:15.089Z,99770.87
2018-07-13T17:45:44.516Z,99766.13
2018-07-13T17:48:13.995Z,99769.06
2018-07-13T17:50:44.544Z,99769.42
2018-07-13T17:53:13.941Z,99770.77
2018-07-13T17:55:43.599Z,99779.52
2018-07-13T17:58:12.896Z,99762.11
2018-07-13T18:00:42.364Z,99762.47
2018-07-13T18:03:11.783Z,99762.58
2018-07-13T18:05:41.437Z,99761.83
2018-07-13T18:08:10.931Z,99748.47
2018-07-13T18:10:40.412Z,99766.70
2018-07-13T18:13:10.105Z,99766.06
2018-07-13T18:15:39.866Z,99773.48
2018-07-13T18:18:09.367Z,99777.37
2018-07-13T18:20:38.956Z,99781.47
2018-07-13T18:23:08.579Z,99779.03
2018-07-13T18:25:38.086Z,99782.91
2018-07-13T18:28:07.736Z,99783.50
2018-07-13T18:30:37.526Z,99781.05
2018-07-13T18:33:08.063Z,99781.88
2018-07-13T18:35:37.620Z,99777.27
2018-07-13T18:38:07.052Z,99765.36
2018-07-13T18:40:36.711Z,99760.98
2018-07-13T18:43:06.195Z,99759.02
2018-07-13T18:45:35.865Z,99761.25
2018-07-13T18:48:05.423Z,99765.00
2018-07-13T18:50:35.039Z,99770.42
2018-07-13T18:53:04.556Z,99778.17
2018-07-13T18:55:34.148Z,99779.58
2018-07-13T18:58:03.839Z,99780.77
2018-07-13T19:00:33.289Z,99767.41
2018-07-13T19:03:02.879Z,99767.29
2018-07-13T19:05:32.339Z,99780.27
2018-07-13T19:08:01.801Z,99798.81
2018-07-13T19:10:31.435Z,99804.38
2018-07-13T19:13:00.865Z,99812.48
2018-07-13T19:15:30.400Z,99810.35
2018-07-13T19:17:59.966Z,99808.97
2018-07-13T19:20:29.467Z,99820.13
2018-07-13T19:22:58.806Z,99825.95
2018-07-13T19:25:29.370Z,99821.09
2018-07-13T19:27:59.960Z,99825.84
2018-07-13T19:30:29.291Z,99824.02
2018-07-13T19:32:58.762Z,99830.33
2018-07-13T19:35:28.226Z,99831.45
2018-07-13T19:37:57.748Z,99831.45
2018-07-13T19:40:27.161Z,99831.07
2018-07-13T19:42:56.763Z,99834.11
2018-07-13T19:45:26.387Z,99836.78
2018-07-13T19:47:55.995Z,99838.23
2018-07-13T19:50:25.526Z,99839.67
2018-07-13T19:52:55.021Z,99836.25
2018-07-13T19:55:27.497Z,99837.73
2018-07-13T19:57:56.969Z,99841.46
2018-07-13T20:00:26.401Z,99843.38
2018-07-13T20:02:55.801Z,99842.63
2018-07-13T20:05:25.341Z,99848.94
2018-07-13T20:07:54.852Z,99843.59
2018-07-13T20:10:24.405Z,99849.89
2018-07-13T20:12:54.138Z,99854.27
2018-07-13T20:15:23.635Z,99854.44
2018-07-13T20:17:53.156Z,99853.84
2018-07-13T20:20:22.669Z,99849.59
2018-07-13T20:22:52.148Z,99852.06
2018-07-13T20:25:22.599Z,99850.72
2018-07-13T20:27:52.087Z,99844.91
2018-07-13T20:30:21.607Z,99851.47
2018-07-13T20:32:51.330Z,99852.22
2018-07-13T20:35:20.787Z,99861.94
2018-07-13T20:37:50.274Z,99865.25
2018-07-13T20:40:20.727Z,99862.84
2018-07-13T20:42:50.245Z,99865.64
2018-07-13T20:45:19.826Z,99870.56
2018-07-13T20:47:49.190Z,99875.69
2018-07-13T20:50:18.848Z,99870.63
2018-07-13T20:52:48.352Z,99870.30
2018-07-13T20:55:17.977Z,99868.05
2018-07-13T20:57:48.583Z,99872.19
2018-07-13T21:00:18.253Z,99871.22
2018-07-13T21:02:47.760Z,99873.67
2018-07-13T21:05:17.182Z,99871.75
2018-07-13T21:07:46.628Z,99875.82
2018-07-13T21:10:16.306Z,99884.36
2018-07-13T21:12:45.765Z,99887.33
2018-07-13T21:15:15.393Z,99891.02
2018-07-13T21:17:44.837Z,99893.31
2018-07-13T21:20:14.431Z,99889.17
2018-07-13T21:22:44.009Z,99898.90
2018-07-13T21:25:13.600Z,99910.08
2018-07-13T21:27:43.170Z,99907.73
2018-07-13T21:30:12.688Z,99904.27
2018-07-13T21:32:42.168Z,99903.43
2018-07-13T21:35:11.541Z,99901.51
2018-07-13T21:37:41.735Z,99904.18
2018-07-13T21:40:11.247Z,99902.25
2018-07-13T21:42:41.730Z,99904.92
2018-07-13T21:45:11.489Z,99899.58
2018-07-13T21:47:40.799Z,99903.22
2018-07-13T21:50:10.352Z,99892.64
2018-07-13T21:52:39.749Z,99893.12
2018-07-13T21:55:09.176Z,99889.11
2018-07-13T21:57:38.692Z,99887.78
2018-07-13T22:00:08.500Z,99886.92
2018-07-13T22:02:37.913Z,99889.59
2018-07-13T22:05:07.378Z,99893.70
2018-07-13T22:07:36.866Z,99886.28
2018-07-13T22:10:06.474Z,99884.09
2018-07-13T22:12:36.226Z,99887.87
2018-07-13T22:15:05.938Z,99887.12
2018-07-13T22:17:35.429Z,99883.70
2018-07-13T22:20:05.089Z,99880.28
2018-07-13T22:22:34.602Z,99886.69
2018-07-13T22:25:03.998Z,99882.79
2018-07-13T22:27:33.564Z,99882.62
2018-07-13T22:30:03.373Z,99888.11
2018-07-13T22:32:32.793Z,99891.73
2018-07-13T22:35:02.340Z,99886.03
2018-07-13T22:37:31.814Z,99879.08
2018-07-13T22:40:01.166Z,99880.79
2018-07-13T22:42:30.537Z,99880.31
2018-07-13T22:44:59.977Z,99877.75
2018-07-13T22:47:29.506Z,99875.08
2018-07-13T22:49:58.847Z,99880.41
2018-07-13T22:52:28.460Z,99870.11
2018-07-13T22:54:57.929Z,99868.41
2018-07-13T22:57:27.312Z,99868.13
2018-07-13T22:59:57.054Z,99873.09
2018-07-13T23:02:26.371Z,99874.44
2018-07-13T23:04:55.895Z,99871.77
2018-07-13T23:07:26.463Z,99877.96
2018-07-13T23:09:55.935Z,99876.63
2018-07-13T23:12:25.393Z,99889.39
2018-07-13T23:14:54.828Z,99885.86
2018-07-13T23:17:25.135Z,99884.05
2018-07-13T23:19:55.691Z,99881.86
2018-07-13T23:22:25.140Z,99879.67
2018-07-13T23:24:54.634Z,99878.33
2018-07-13T23:27:24.193Z,99879.77
2018-07-13T23:29:53.630Z,99873.58
2018-07-13T23:32:22.944Z,99870.91
2018-07-13T23:34:52.514Z,99873.20
2018-07-13T23:37:21.951Z,99876.36
2018-07-13T23:39:51.487Z,99877.31
2018-07-13T23:42:20.875Z,99880.67
2018-07-13T23:44:50.265Z,99876.06
2018-07-13T23:47:19.827Z,99880.27
2018-07-13T23:49:49.217Z,99882.20
2018-07-13T23:52:18.794Z,99881.17
2018-07-13T23:54:48.317Z,99884.05
2018-07-13T23:57:17.849Z,99893.63
2018-07-13T23:59:47.383Z,99882.69
